Time;durP1;ratioP1;P1;durP2;ratioP2;P2;SDS_P1;SDS_P2;PMS_P1;PMS_P2;Temp;Humidity;BMP_temperature;BMP_pressure;BME280_temperature;BME280_humidity;BME280_pressure;Samples;Min_cycle;Max_cycle;Signal;HPM_P1;HPM_P2
2022/05/01 00:01:14;;;;;;;10.35;7.78;;;10.40;99.90;;;;;;5075592;28;20193;-44
2022/05/01 00:03:39;;;;;;;9.82;6.90;;;10.50;99.90;;;;;;5075074;28;20217;-46
2022/05/01 00:06:09;;;;;;;11.75;8.00;;;10.50;99.90;;;;;;5074931;28;20661;-46
2022/05/01 00:08:37;;;;;;;10.77;7.55;;;10.50;99.90;;;;;;5075318;28;20170;-51
2022/05/01 00:11:02;;;;;;;11.77;7.80;;;10.60;99.90;;;;;;5075759;28;20536;-45
2022/05/01 00:13:28;;;;;;;8.35;6.97;;;10.60;99.90;;;;;;5091295;28;20158;-46
2022/05/01 00:15:54;;;;;;;9.50;7.13;;;10.60;99.90;;;;;;5075050;28;20177;-45
2022/05/01 00:18:20;;;;;;;11.93;8.07;;;10.60;99.90;;;;;;5075028;28;20208;-46
2022/05/01 00:20:46;;;;;;;8.57;7.53;;;10.50;99.90;;;;;;5074949;28;20631;-44
2022/05/01 00:23:12;;;;;;;10.25;7.38;;;10.50;99.90;;;;;;5074966;28;20162;-45
2022/05/01 00:25:42;;;;;;;11.85;7.72;;;10.40;99.90;;;;;;5074881;28;20174;-45
2022/05/01 00:28:10;;;;;;;9.13;7.65;;;10.50;99.90;;;;;;5074936;28;20227;-46
2022/05/01 00:30:36;;;;;;;10.10;7.85;;;10.50;99.90;;;;;;5074772;28;20166;-44
2022/05/01 00:38:30;;;;;;;13.68;7.95;;;10.60;99.90;;;;;;5075202;28;20224;-45
2022/05/01 00:40:57;;;;;;;11.27;7.68;;;10.50;99.90;;;;;;5073592;28;20174;-44
2022/05/01 00:43:23;;;;;;;12.25;8.32;;;10.60;99.90;;;;;;5090046;28;20154;-45
2022/05/01 00:45:49;;;;;;;11.38;8.15;;;10.50;99.90;;;;;;5074516;28;20678;-44
2022/05/01 00:48:15;;;;;;;10.73;8.13;;;10.50;99.90;;;;;;5074478;28;20193;-47
2022/05/01 00:50:41;;;;;;;13.13;9.02;;;10.50;99.90;;;;;;5074520;28;20623;-44
2022/05/01 00:53:08;;;;;;;14.32;8.48;;;10.50;99.90;;;;;;5074352;28;20621;-44
2022/05/01 00:55:35;;;;;;;13.30;8.63;;;10.50;99.90;;;;;;5074381;28;20166;-45
2022/05/01 00:58:03;;;;;;;11.57;8.88;;;10.50;99.90;;;;;;5074607;28;20626;-45
2022/05/01 01:00:29;;;;;;;14.55;8.82;;;10.50;99.90;;;;;;5073156;28;20213;-46
2022/05/01 01:02:55;;;;;;;12.00;7.82;;;10.40;99.90;;;;;;5074097;28;20218;-44
2022/05/01 01:05:21;;;;;;;14.32;8.65;;;10.40;99.90;;;;;;5074189;28;20182;-44
2022/05/01 01:07:46;;;;;;;13.20;8.32;;;10.40;99.90;;;;;;5074207;28;20634;-45
2022/05/01 01:10:12;;;;;;;11.90;8.65;;;10.40;99.90;;;;;;5074204;28;20658;-45
2022/05/01 01:12:56;;;;;;;12.90;8.27;;;10.40;99.90;;;;;;5074182;28;20228;-45
2022/05/01 01:15:29;;;;;;;13.32;9.27;;;10.30;99.90;;;;;;5074276;28;20166;-46
2022/05/01 01:17:55;;;;;;;15.68;8.85;;;10.20;99.90;;;;;;5074239;28;20170;-44
2022/05/01 01:20:23;;;;;;;15.68;10.27;;;10.30;99.90;;;;;;5089428;28;20728;-44
2022/05/01 01:22:51;;;;;;;13.43;9.40;;;10.30;99.90;;;;;;5074009;28;20166;-44
2022/05/01 01:25:33;;;;;;;12.95;9.15;;;10.30;99.90;;;;;;5074045;28;20177;-44
2022/05/01 01:28:02;;;;;;;13.77;8.88;;;10.30;99.90;;;;;;5074032;28;20188;-44
2022/05/01 01:33:15;;;;;;;11.57;8.70;;;10.30;99.90;;;;;;5073916;28;20184;-43
2022/05/01 01:35:41;;;;;;;14.82;10.55;;;10.20;99.90;;;;;;5073754;28;20162;-44
2022/05/01 01:38:07;;;;;;;21.35;9.77;;;10.20;99.90;;;;;;5073536;28;20166;-44
2022/05/01 01:40:43;;;;;;;11.95;8.98;;;10.30;99.90;;;;;;5073779;28;20578;-44
2022/05/01 01:43:11;;;;;;;21.42;9.45;;;10.30;99.90;;;;;;5073527;28;20219;-44
2022/05/01 01:45:36;;;;;;;12.75;8.80;;;10.30;99.90;;;;;;5072225;28;20223;-45
2022/05/01 01:48:13;;;;;;;15.40;8.90;;;10.20;99.90;;;;;;5073755;28;20646;-45
2022/05/01 01:50:39;;;;;;;15.30;9.52;;;10.20;99.90;;;;;;5073693;28;20252;-44
2022/05/01 01:53:05;;;;;;;11.23;9.15;;;10.30;99.90;;;;;;5073027;28;20354;-44
2022/05/01 01:55:31;;;;;;;11.50;8.63;;;10.30;99.90;;;;;;5073508;28;20177;-46
2022/05/01 01:57:57;;;;;;;15.10;10.25;;;10.30;99.90;;;;;;5073483;28;20530;-44
2022/05/01 02:00:23;;;;;;;13.07;9.18;;;10.30;99.90;;;;;;5073399;28;20209;-48
2022/05/01 02:02:48;;;;;;;15.20;9.20;;;10.30;99.90;;;;;;5073070;28;20218;-45
2022/05/01 02:05:14;;;;;;;11.95;8.77;;;10.30;99.90;;;;;;5073048;28;20181;-46
2022/05/01 02:07:40;;;;;;;17.25;10.18;;;10.30;99.90;;;;;;5073014;28;20174;-45
2022/05/01 02:10:06;;;;;;;12.52;9.35;;;10.30;99.90;;;;;;5072942;28;20515;-45
2022/05/01 02:12:33;;;;;;;13.75;10.38;;;10.30;99.90;;;;;;5073241;28;20225;-45
2022/05/01 02:14:59;;;;;;;14.40;9.52;;;10.30;99.90;;;;;;5071776;28;20166;-47
2022/05/01 02:17:24;;;;;;;12.25;9.05;;;10.30;99.90;;;;;;5072950;28;20192;-45
2022/05/01 02:19:50;;;;;;;12.95;9.15;;;10.30;99.90;;;;;;5072656;28;20210;-46
2022/05/01 02:22:15;;;;;;;11.55;9.13;;;10.30;99.90;;;;;;5072672;28;20216;-45
2022/05/01 02:24:41;;;;;;;15.32;9.50;;;10.40;99.90;;;;;;5072733;28;20639;-49
2022/05/01 02:27:07;;;;;;;15.15;9.90;;;10.40;99.90;;;;;;5072609;28;20169;-46
2022/05/01 02:29:32;;;;;;;12.85;9.60;;;10.40;99.90;;;;;;5073051;28;20186;-46
2022/05/01 02:31:58;;;;;;;16.98;10.77;;;10.40;99.90;;;;;;5072816;28;20170;-46
2022/05/01 02:34:24;;;;;;;12.50;9.57;;;10.50;99.90;;;;;;5072423;28;20174;-44
2022/05/01 02:36:53;;;;;;;11.23;9.45;;;10.40;99.90;;;;;;5072492;28;20169;-45
2022/05/01 02:39:19;;;;;;;12.32;9.98;;;10.40;99.90;;;;;;5072562;28;20205;-44
2022/05/01 02:41:45;;;;;;;16.63;11.10;;;10.40;99.90;;;;;;5072686;28;20197;-45
2022/05/01 02:44:11;;;;;;;12.48;9.95;;;10.40;99.90;;;;;;5072609;28;20197;-45
2022/05/01 02:46:37;;;;;;;15.40;10.68;;;10.40;99.90;;;;;;5072384;28;20170;-44
2022/05/01 02:49:04;;;;;;;14.90;10.07;;;10.40;99.90;;;;;;5072259;28;20253;-44
2022/05/01 02:51:31;;;;;;;13.82;9.82;;;10.40;99.90;;;;;;5072771;28;20537;-44
2022/05/01 02:53:58;;;;;;;12.02;9.43;;;10.50;99.90;;;;;;5072523;28;20201;-44
2022/05/01 02:56:24;;;;;;;17.63;10.05;;;10.40;99.90;;;;;;5072503;28;20197;-44
2022/05/01 02:58:49;;;;;;;12.10;9.50;;;10.40;99.90;;;;;;5072072;28;20225;-44
2022/05/01 03:01:15;;;;;;;14.48;9.95;;;10.40;99.90;;;;;;5072178;28;20178;-44
2022/05/01 03:03:40;;;;;;;18.75;9.57;;;10.40;99.90;;;;;;5071243;28;20275;-44
2022/05/01 03:06:06;;;;;;;14.40;9.20;;;10.30;99.90;;;;;;5072057;28;20173;-44
2022/05/01 03:08:32;;;;;;;14.48;9.95;;;10.40;99.90;;;;;;5072307;28;20202;-48
2022/05/01 03:10:57;;;;;;;17.35;10.52;;;10.40;99.90;;;;;;5071978;28;20166;-47
2022/05/01 03:13:23;;;;;;;14.98;10.50;;;10.40;99.90;;;;;;5071987;28;20586;-48
2022/05/01 03:15:48;;;;;;;17.73;10.40;;;10.40;99.90;;;;;;5071995;28;20166;-44
2022/05/01 03:23:44;;;;;;;18.20;10.18;;;10.40;99.90;;;;;;5072121;28;20184;-46
2022/05/01 03:26:10;;;;;;;12.68;9.50;;;10.40;99.90;;;;;;5072077;28;20634;-44
2022/05/01 03:28:35;;;;;;;13.30;10.38;;;10.40;99.90;;;;;;5071474;28;20170;-44
2022/05/01 03:31:01;;;;;;;15.80;11.10;;;10.40;99.90;;;;;;5072010;28;20558;-43
2022/05/01 03:33:26;;;;;;;12.85;10.43;;;10.40;99.90;;;;;;5071760;28;20249;-44
2022/05/01 03:35:53;;;;;;;14.60;10.73;;;10.40;99.90;;;;;;5071813;28;20170;-46
2022/05/01 03:38:20;;;;;;;18.40;11.20;;;10.40;99.90;;;;;;5071768;28;20194;-44
2022/05/01 03:40:47;;;;;;;12.95;10.43;;;10.40;99.90;;;;;;5071558;28;20779;-44
2022/05/01 03:43:17;;;;;;;13.55;10.77;;;10.40;99.90;;;;;;5071757;28;20162;-44
2022/05/01 03:45:43;;;;;;;18.15;11.23;;;10.40;99.90;;;;;;5071670;28;20177;-44
2022/05/01 03:48:09;;;;;;;15.60;11.05;;;10.40;99.90;;;;;;5071704;28;20166;-44
2022/05/01 03:50:35;;;;;;;15.35;10.73;;;10.40;99.90;;;;;;5071629;28;20162;-44
2022/05/01 03:53:04;;;;;;;13.73;10.38;;;10.40;99.90;;;;;;5070577;28;20181;-44
2022/05/01 03:55:31;;;;;;;15.05;10.68;;;10.30;99.90;;;;;;5071800;28;20174;-44
2022/05/01 03:57:58;;;;;;;14.70;10.55;;;10.30;99.90;;;;;;5071484;28;20158;-47
2022/05/01 04:00:24;;;;;;;14.68;10.63;;;10.20;99.90;;;;;;5071700;28;20212;-47
2022/05/01 04:02:52;;;;;;;14.65;10.60;;;10.30;99.90;;;;;;5071366;28;20218;-49
2022/05/01 04:05:17;;;;;;;13.82;10.98;;;10.30;99.90;;;;;;5071464;28;20166;-48
2022/05/01 04:07:43;;;;;;;18.45;11.30;;;10.30;99.90;;;;;;5071503;28;20211;-44
2022/05/01 04:10:10;;;;;;;15.27;11.32;;;10.30;99.90;;;;;;5071430;28;20538;-47
2022/05/01 04:12:41;;;;;;;15.38;11.82;;;10.40;99.90;;;;;;5071311;28;20227;-44
2022/05/01 04:15:07;;;;;;;20.30;10.82;;;10.40;99.90;;;;;;5072879;28;20570;-49
2022/05/01 04:17:37;;;;;;;18.63;10.90;;;10.40;99.90;;;;;;5075393;28;20257;-44
2022/05/01 04:20:03;;;;;;;16.13;11.20;;;10.30;99.90;;;;;;5075295;28;20198;-44
2022/05/01 04:22:35;;;;;;;15.00;10.88;;;10.30;99.90;;;;;;5075515;28;20178;-44
2022/05/01 04:25:00;;;;;;;15.20;11.27;;;10.40;99.90;;;;;;5075231;28;20166;-46
2022/05/01 04:27:26;;;;;;;14.90;11.32;;;10.30;99.90;;;;;;5074881;28;20661;-45
2022/05/01 04:29:51;;;;;;;16.58;11.10;;;10.30;99.90;;;;;;5074856;28;20215;-49
2022/05/01 04:32:19;;;;;;;15.30;11.35;;;10.30;99.90;;;;;;5074742;28;20170;-47
2022/05/01 04:34:44;;;;;;;15.73;11.02;;;10.30;99.90;;;;;;5074709;28;20593;-48
2022/05/01 04:37:10;;;;;;;14.70;11.25;;;10.20;99.90;;;;;;5074806;28;20158;-48
2022/05/01 04:39:36;;;;;;;15.50;11.27;;;10.30;99.90;;;;;;5074876;28;20271;-46
2022/05/01 04:42:01;;;;;;;17.15;11.25;;;10.30;99.90;;;;;;5075048;28;20162;-47
2022/05/01 04:44:27;;;;;;;14.15;11.50;;;10.30;99.90;;;;;;5074851;28;20170;-50
2022/05/01 04:46:53;;;;;;;18.00;11.70;;;10.30;99.90;;;;;;5074572;28;20181;-44
2022/05/01 04:49:18;;;;;;;12.88;11.02;;;10.30;99.90;;;;;;5073301;28;20182;-44
2022/05/01 04:51:45;;;;;;;14.45;11.38;;;10.40;99.90;;;;;;5074814;28;20174;-44
2022/05/01 04:54:11;;;;;;;17.00;11.20;;;10.40;99.90;;;;;;5074725;28;20170;-43
2022/05/01 04:59:20;;;;;;;18.83;11.55;;;10.40;99.90;;;;;;5074247;28;20212;-44
2022/05/01 05:01:46;;;;;;;16.05;12.05;;;10.50;99.90;;;;;;5074181;28;20634;-44
2022/05/01 05:04:11;;;;;;;18.05;11.45;;;10.60;99.90;;;;;;5074319;28;20249;-44
2022/05/01 05:06:37;;;;;;;19.13;13.10;;;10.50;99.90;;;;;;5074211;28;20178;-44
2022/05/01 05:11:47;;;;;;;19.42;11.85;;;10.60;99.90;;;;;;5074153;28;20169;-44
2022/05/01 05:14:12;;;;;;;16.15;11.35;;;10.70;99.90;;;;;;5074094;28;20203;-44
2022/05/01 05:16:38;;;;;;;17.23;12.57;;;10.70;99.90;;;;;;5074031;28;20170;-44
2022/05/01 05:19:03;;;;;;;14.00;11.88;;;10.70;99.90;;;;;;5074151;28;20243;-44
2022/05/01 05:21:29;;;;;;;15.80;11.82;;;10.80;99.90;;;;;;5074251;28;20253;-44
2022/05/01 05:23:55;;;;;;;16.83;13.25;;;10.80;99.90;;;;;;5073875;28;20180;-44
2022/05/01 05:26:21;;;;;;;16.58;11.75;;;10.80;99.90;;;;;;5073424;28;20561;-44
2022/05/01 05:28:46;;;;;;;15.60;12.55;;;10.90;99.90;;;;;;5073802;28;20173;-44
2022/05/01 05:31:12;;;;;;;19.92;12.27;;;10.90;99.90;;;;;;5073769;28;20170;-44
2022/05/01 05:33:37;;;;;;;16.38;12.10;;;11.00;99.90;;;;;;5074004;28;20170;-43
2022/05/01 05:36:03;;;;;;;18.85;11.80;;;11.00;99.90;;;;;;5073889;28;20166;-44
2022/05/01 05:38:29;;;;;;;18.83;12.40;;;10.90;99.90;;;;;;5073818;28;20520;-44
2022/05/01 05:40:54;;;;;;;17.98;12.48;;;11.00;99.90;;;;;;5073455;28;20201;-44
2022/05/01 05:43:20;;;;;;;14.88;12.40;;;11.00;99.90;;;;;;5073447;28;20628;-44
2022/05/01 05:45:45;;;;;;;18.05;11.75;;;11.10;99.90;;;;;;5073425;28;20174;-44
2022/05/01 05:48:11;;;;;;;14.45;11.73;;;11.20;99.90;;;;;;5073414;28;20223;-48
2022/05/01 05:50:36;;;;;;;17.10;11.85;;;11.00;99.90;;;;;;5073344;28;20192;-44
2022/05/01 05:53:03;;;;;;;15.70;11.88;;;10.90;99.90;;;;;;5073573;28;20180;-44
2022/05/01 05:55:33;;;;;;;16.65;11.88;;;11.00;99.90;;;;;;5073811;28;20166;-47
2022/05/01 05:58:01;;;;;;;15.30;12.30;;;11.20;99.90;;;;;;5073701;28;20529;-49
2022/05/01 06:00:27;;;;;;;16.65;12.55;;;11.10;99.90;;;;;;5073049;28;20205;-50
2022/05/01 06:02:52;;;;;;;16.90;12.40;;;11.20;99.90;;;;;;5072914;28;20214;-50
2022/05/01 06:05:17;;;;;;;13.93;11.63;;;11.30;99.90;;;;;;5073081;28;20177;-47
2022/05/01 06:07:43;;;;;;;18.80;12.15;;;11.30;99.90;;;;;;5071676;28;20253;-49
2022/05/01 06:10:09;;;;;;;19.00;12.85;;;11.40;99.90;;;;;;5072986;28;20174;-49
2022/05/01 06:12:41;;;;;;;15.82;11.85;;;11.60;99.90;;;;;;5072918;28;20174;-49
2022/05/01 06:15:07;;;;;;;20.92;12.48;;;11.70;99.90;;;;;;5072874;28;20669;-50
2022/05/01 06:17:33;;;;;;;17.33;12.35;;;12.00;99.90;;;;;;5072826;28;20560;-45
2022/05/01 06:19:58;;;;;;;16.08;12.25;;;12.10;99.90;;;;;;5072978;28;20202;-49
2022/05/01 06:22:24;;;;;;;13.55;11.30;;;12.20;99.90;;;;;;5072679;28;20177;-46
2022/05/01 06:24:49;;;;;;;15.55;11.95;;;12.40;99.90;;;;;;5072572;28;20452;-50
2022/05/01 06:27:15;;;;;;;15.02;11.50;;;12.50;99.90;;;;;;5072676;28;20179;-50
2022/05/01 06:29:40;;;;;;;15.00;11.65;;;12.70;99.90;;;;;;5072882;28;20165;-50
2022/05/01 06:32:08;;;;;;;13.88;11.45;;;12.90;99.90;;;;;;5072461;28;20243;-49
2022/05/01 06:34:35;;;;;;;18.63;11.98;;;13.00;99.90;;;;;;5072609;28;20166;-46
2022/05/01 06:37:00;;;;;;;12.38;10.93;;;13.00;99.90;;;;;;5072704;28;20610;-44
2022/05/01 06:39:26;;;;;;;16.70;12.40;;;13.10;99.90;;;;;;5072335;28;20210;-49
2022/05/01 06:41:53;;;;;;;17.40;11.70;;;13.30;99.90;;;;;;5072424;28;20162;-47
2022/05/01 06:44:19;;;;;;;14.05;11.95;;;13.40;99.90;;;;;;5072676;28;20170;-46
2022/05/01 06:46:44;;;;;;;12.50;11.25;;;13.60;99.90;;;;;;5072323;28;20283;-48
2022/05/01 06:49:11;;;;;;;17.42;12.52;;;13.60;99.90;;;;;;5072589;28;20193;-44
2022/05/01 06:51:36;;;;;;;14.63;11.57;;;13.70;99.90;;;;;;5072388;28;20699;-45
2022/05/01 06:54:03;;;;;;;14.02;11.60;;;13.80;99.90;;;;;;5072585;28;20193;-45
2022/05/01 06:56:28;;;;;;;17.20;11.38;;;13.90;99.90;;;;;;5072735;28;20197;-46
2022/05/01 06:58:54;;;;;;;13.32;11.57;;;14.00;99.90;;;;;;5070959;28;20169;-44
2022/05/01 07:01:19;;;;;;;12.55;10.95;;;14.10;99.90;;;;;;5072206;28;20209;-45
2022/05/01 07:03:46;;;;;;;14.77;12.07;;;14.20;99.90;;;;;;5072045;28;20267;-45
2022/05/01 07:06:12;;;;;;;11.98;10.65;;;14.40;99.90;;;;;;5072168;28;20185;-45
2022/05/01 07:08:37;;;;;;;12.55;11.00;;;14.30;99.90;;;;;;5071826;28;20228;-49
2022/05/01 07:11:03;;;;;;;12.80;8.98;;;14.20;99.90;;;;;;5071917;28;20185;-44
2022/05/01 07:13:28;;;;;;;13.82;10.60;;;14.30;99.90;;;;;;5071729;28;20166;-47
2022/05/01 07:15:54;;;;;;;14.45;9.80;;;14.60;99.90;;;;;;5071949;28;20299;-45
2022/05/01 07:18:19;;;;;;;12.20;9.90;;;14.70;99.90;;;;;;5072174;28;20162;-47
2022/05/01 07:20:47;;;;;;;14.93;10.27;;;14.90;99.90;;;;;;5071597;28;20201;-48
2022/05/01 07:23:12;;;;;;;12.07;9.50;;;15.20;99.90;;;;;;5071665;28;20162;-44
2022/05/01 07:25:38;;;;;;;14.20;9.20;;;15.10;99.90;;;;;;5071782;28;20267;-45
2022/05/01 07:28:04;;;;;;;9.98;8.80;;;15.20;99.90;;;;;;5071902;28;20169;-46
2022/05/01 07:30:30;;;;;;;14.20;8.73;;;15.20;99.90;;;;;;5062906;28;20166;-46
2022/05/01 07:32:56;;;;;;;11.30;9.35;;;15.40;99.90;;;;;;5061260;28;20207;-43
2022/05/01 07:35:21;;;;;;;12.85;9.68;;;15.40;99.90;;;;;;5059519;28;20174;-48
2022/05/01 07:37:47;;;;;;;10.00;8.57;;;15.40;99.90;;;;;;5051516;28;20254;-49
2022/05/01 07:40:13;;;;;;;10.13;8.70;;;15.40;99.90;;;;;;5051669;28;20675;-45
2022/05/01 07:42:38;;;;;;;17.35;9.80;;;15.40;99.90;;;;;;5051584;28;20205;-47
2022/05/01 07:45:04;;;;;;;11.13;8.60;;;15.50;99.90;;;;;;5051700;28;20250;-44
2022/05/01 07:47:30;;;;;;;9.90;8.90;;;15.50;99.90;;;;;;5051841;28;20171;-48
2022/05/01 07:49:55;;;;;;;9.38;8.25;;;15.50;99.90;;;;;;5052503;28;20171;-48
2022/05/01 07:52:21;;;;;;;11.77;9.15;;;15.60;99.90;;;;;;5055574;28;20167;-48
2022/05/01 07:54:46;;;;;;;13.65;10.40;;;15.80;99.90;;;;;;5055505;28;20186;-49
2022/05/01 07:57:12;;;;;;;13.55;10.00;;;15.80;99.90;;;;;;5055575;28;20254;-48
2022/05/01 07:59:37;;;;;;;11.48;10.27;;;15.80;99.90;;;;;;5055129;28;20199;-47
2022/05/01 08:02:03;;;;;;;11.10;9.82;;;16.10;99.90;;;;;;5055896;28;20263;-48
2022/05/01 08:04:29;;;;;;;14.93;9.98;;;16.10;99.90;;;;;;5055883;28;20196;-49
2022/05/01 08:06:56;;;;;;;11.07;9.10;;;16.30;99.90;;;;;;5055181;28;20166;-48
2022/05/01 08:09:21;;;;;;;15.20;11.00;;;16.30;99.90;;;;;;5055262;28;20170;-47
2022/05/01 08:11:47;;;;;;;10.50;9.43;;;16.30;99.90;;;;;;5055236;28;20174;-46
2022/05/01 08:14:12;;;;;;;10.90;8.88;;;16.30;99.90;;;;;;5055184;28;20167;-49
2022/05/01 08:16:39;;;;;;;10.32;8.48;;;16.20;99.90;;;;;;5055423;28;20253;-47
2022/05/01 08:21:50;;;;;;;11.13;8.45;;;16.20;99.90;;;;;;5055249;28;20177;-44
2022/05/01 08:24:15;;;;;;;13.05;8.25;;;16.50;99.90;;;;;;5054614;28;20166;-45
2022/05/01 08:26:46;;;;;;;10.85;8.77;;;16.50;99.90;;;;;;5054840;28;20228;-45
2022/05/01 08:29:12;;;;;;;11.65;8.88;;;16.60;99.90;;;;;;5053716;28;20537;-44
2022/05/01 08:31:37;;;;;;;10.98;7.95;;;16.80;99.90;;;;;;5053223;28;20174;-44
2022/05/01 08:34:03;;;;;;;9.32;8.02;;;16.70;99.90;;;;;;5055188;28;20179;-44
2022/05/01 08:36:29;;;;;;;12.85;8.98;;;17.10;99.90;;;;;;5055266;28;20177;-44
2022/05/01 08:38:54;;;;;;;9.57;8.45;;;17.10;99.90;;;;;;5054696;28;20603;-45
2022/05/01 08:41:22;;;;;;;9.77;8.50;;;17.20;99.90;;;;;;5054702;28;20167;-44
2022/05/01 08:43:47;;;;;;;11.55;8.82;;;17.10;99.90;;;;;;5054885;28;20246;-50
2022/05/01 08:46:27;;;;;;;11.38;9.52;;;16.70;99.90;;;;;;5054912;28;20217;-45
2022/05/01 08:49:05;;;;;;;10.27;8.70;;;16.70;99.90;;;;;;5054818;28;20527;-45
2022/05/01 08:51:33;;;;;;;9.65;8.55;;;16.70;99.90;;;;;;5054831;28;20215;-46
2022/05/01 08:54:00;;;;;;;15.40;8.88;;;16.70;99.90;;;;;;5053552;28;20166;-50
2022/05/01 08:56:26;;;;;;;10.80;8.30;;;16.50;99.90;;;;;;5054677;28;20175;-47
2022/05/01 08:58:52;;;;;;;13.23;8.60;;;16.50;99.90;;;;;;5054179;28;20166;-49
2022/05/01 09:01:18;;;;;;;10.57;8.95;;;16.40;99.90;;;;;;5053463;28;20197;-44
2022/05/01 09:03:45;;;;;;;13.07;9.38;;;16.30;99.90;;;;;;5054129;28;20206;-45
2022/05/01 09:06:11;;;;;;;9.93;8.93;;;16.20;99.90;;;;;;5053967;28;20220;-47
2022/05/01 09:08:38;;;;;;;11.43;8.80;;;16.20;99.90;;;;;;5053907;28;20581;-44
2022/05/01 09:13:48;;;;;;;12.25;9.23;;;16.00;99.90;;;;;;5053870;28;20686;-44
2022/05/01 09:16:14;;;;;;;12.23;9.27;;;16.10;99.90;;;;;;5052766;28;20167;-45
2022/05/01 09:18:46;;;;;;;13.25;9.00;;;15.90;99.90;;;;;;5052720;28;20174;-46
2022/05/01 09:21:13;;;;;;;11.55;8.90;;;15.80;99.90;;;;;;5053304;28;20182;-49
2022/05/01 09:23:47;;;;;;;17.83;11.30;;;15.70;99.90;;;;;;5053123;28;20162;-45
2022/05/01 09:26:14;;;;;;;16.35;10.90;;;15.60;99.90;;;;;;5053216;28;20182;-49
2022/05/01 09:29:00;;;;;;;17.92;10.95;;;15.50;99.90;;;;;;5053000;28;20170;-47
2022/05/01 09:31:46;;;;;;;17.77;11.18;;;15.50;99.90;;;;;;5052317;28;20190;-47
2022/05/01 09:34:23;;;;;;;16.02;10.38;;;15.50;99.90;;;;;;5051794;28;20198;-48
2022/05/01 09:36:53;;;;;;;14.30;10.02;;;15.50;99.90;;;;;;5051848;28;20516;-48
2022/05/01 09:39:27;;;;;;;14.77;10.80;;;15.40;99.90;;;;;;5051866;28;20187;-47
2022/05/01 09:41:54;;;;;;;18.42;11.52;;;15.50;99.90;;;;;;5053159;28;20174;-50
2022/05/01 09:44:22;;;;;;;15.20;11.05;;;15.60;99.90;;;;;;5053165;28;20159;-47
2022/05/01 09:46:50;;;;;;;11.50;9.35;;;15.70;99.90;;;;;;5053299;28;20228;-48
2022/05/01 09:49:17;;;;;;;12.65;10.13;;;15.60;99.90;;;;;;5053243;28;20234;-46
2022/05/01 09:51:54;;;;;;;13.98;10.20;;;15.60;99.90;;;;;;5051964;28;20163;-48
2022/05/01 09:54:22;;;;;;;12.77;10.38;;;15.60;99.90;;;;;;5053294;28;20213;-50
2022/05/01 09:56:57;;;;;;;13.35;11.30;;;15.60;99.90;;;;;;5053352;28;20167;-47
2022/05/01 09:59:23;;;;;;;12.52;10.48;;;15.20;99.90;;;;;;5053351;28;20230;-48
2022/05/01 10:02:06;;;;;;;13.43;10.48;;;15.40;99.90;;;;;;5053064;28;20660;-46
2022/05/01 10:04:37;;;;;;;14.43;10.88;;;15.40;99.90;;;;;;5053422;28;20208;-50
2022/05/01 10:07:04;;;;;;;16.52;11.50;;;15.40;99.90;;;;;;5053322;28;20234;-44
2022/05/01 10:09:32;;;;;;;15.55;11.55;;;15.40;99.90;;;;;;5053392;28;20583;-49
2022/05/01 10:12:03;;;;;;;17.73;12.05;;;15.60;99.90;;;;;;5053512;28;20217;-49
2022/05/01 10:14:28;;;;;;;16.63;12.50;;;15.60;99.90;;;;;;5052893;28;20167;-46
2022/05/01 10:16:54;;;;;;;14.43;11.25;;;15.50;99.90;;;;;;5053202;28;20197;-46
2022/05/01 10:19:24;;;;;;;17.70;12.70;;;15.70;99.90;;;;;;5052741;28;20668;-47
2022/05/01 10:21:59;;;;;;;15.65;12.27;;;15.70;99.90;;;;;;5053029;28;20543;-47
2022/05/01 10:24:25;;;;;;;16.48;12.05;;;15.70;99.90;;;;;;5053084;28;20166;-45
2022/05/01 10:26:57;;;;;;;15.55;11.02;;;15.80;99.90;;;;;;5052638;28;20173;-44
2022/05/01 10:33:18;;;;;;;14.25;11.77;;;15.70;99.90;;;;;;5052427;28;20257;-45
2022/05/01 10:36:19;;;;;;;13.88;11.63;;;15.70;99.90;;;;;;5052606;28;20244;-44
2022/05/01 10:39:03;;;;;;;17.85;12.65;;;15.70;99.90;;;;;;5052686;28;20170;-44
2022/05/01 10:41:30;;;;;;;15.25;13.05;;;15.70;99.90;;;;;;5053028;28;20535;-45
2022/05/01 10:43:58;;;;;;;16.65;12.18;;;15.70;99.90;;;;;;5052408;28;20162;-45
2022/05/01 10:46:32;;;;;;;19.08;14.15;;;15.90;99.90;;;;;;5052415;28;20264;-46
2022/05/01 10:49:02;;;;;;;16.02;11.80;;;16.10;99.90;;;;;;5052308;28;20163;-44
2022/05/01 10:51:27;;;;;;;16.48;13.05;;;16.00;99.90;;;;;;5052541;28;20273;-44
2022/05/01 10:54:15;;;;;;;16.80;13.10;;;16.30;99.90;;;;;;5052276;28;20691;-44
2022/05/01 10:56:45;;;;;;;17.30;13.98;;;16.70;99.90;;;;;;5052218;28;20182;-45
2022/05/01 10:59:29;;;;;;;15.63;12.88;;;16.70;99.90;;;;;;5052141;28;20194;-45
2022/05/01 11:01:57;;;;;;;18.50;12.60;;;16.80;99.90;;;;;;5052009;28;20178;-45
2022/05/01 11:04:23;;;;;;;14.55;12.90;;;17.00;99.90;;;;;;5052361;28;20166;-44
2022/05/01 11:06:53;;;;;;;14.73;11.98;;;17.00;99.90;;;;;;5052084;28;20171;-45
2022/05/01 11:09:21;;;;;;;16.48;12.95;;;17.30;99.90;;;;;;5052029;28;20624;-46
2022/05/01 11:11:47;;;;;;;16.77;13.45;;;17.50;99.90;;;;;;5051939;28;20178;-45
2022/05/01 11:14:13;;;;;;;14.65;12.90;;;17.70;99.90;;;;;;5052256;28;20170;-46
2022/05/01 11:16:52;;;;;;;15.63;13.93;;;18.10;99.90;;;;;;5051618;28;20166;-48
2022/05/01 11:19:18;;;;;;;17.98;14.63;;;18.20;99.90;;;;;;5052036;28;20618;-46
2022/05/01 11:21:50;;;;;;;16.17;13.07;;;18.50;99.90;;;;;;5051558;28;20202;-48
2022/05/01 11:24:35;;;;;;;15.55;11.52;;;18.30;97.70;;;;;;5051275;28;20569;-45
2022/05/01 11:27:10;;;;;;;16.35;13.43;;;18.30;99.30;;;;;;5051602;28;20178;-45
2022/05/01 11:29:36;;;;;;;14.18;12.70;;;18.60;99.50;;;;;;5051719;28;20170;-45
2022/05/01 11:32:18;;;;;;;17.00;14.20;;;18.40;97.00;;;;;;5052189;28;20174;-45
2022/05/01 11:34:54;;;;;;;14.43;12.93;;;17.90;98.20;;;;;;5051678;28;20167;-46
2022/05/01 11:37:22;;;;;;;15.65;13.95;;;17.70;97.90;;;;;;5050643;28;20189;-47
2022/05/01 11:39:54;;;;;;;16.52;13.35;;;17.70;98.50;;;;;;5051653;28;20232;-48
2022/05/01 11:42:26;;;;;;;15.15;13.65;;;17.40;99.40;;;;;;5051467;28;20692;-48
2022/05/01 11:44:52;;;;;;;15.63;13.27;;;17.30;99.90;;;;;;5051737;28;20170;-44
2022/05/01 11:47:23;;;;;;;14.70;12.82;;;17.20;99.90;;;;;;5051442;28;20197;-43
2022/05/01 11:49:50;;;;;;;17.60;12.65;;;17.40;98.80;;;;;;5051697;28;20174;-46
2022/05/01 11:52:16;;;;;;;15.13;12.75;;;17.20;98.70;;;;;;5051483;28;20591;-43
2022/05/01 11:55:06;;;;;;;15.50;13.75;;;17.30;99.60;;;;;;5051408;28;20206;-45
2022/05/01 12:03:07;;;;;;;14.40;12.25;;;17.40;98.60;;;;;;5051640;28;20237;-46
2022/05/01 12:05:45;;;;;;;17.08;14.20;;;16.90;97.20;;;;;;5050077;28;20167;-47
2022/05/01 12:08:19;;;;;;;16.30;13.48;;;16.80;98.90;;;;;;5051304;28;20165;-48
2022/05/01 12:10:46;;;;;;;13.90;12.50;;;17.10;99.50;;;;;;5051334;28;20249;-48
2022/05/01 12:13:27;;;;;;;14.40;12.90;;;17.40;98.40;;;;;;5051588;28;20206;-48
2022/05/01 12:15:54;;;;;;;17.08;12.93;;;17.60;98.90;;;;;;5051448;28;20217;-48
2022/05/01 12:18:21;;;;;;;15.90;12.65;;;17.60;98.00;;;;;;5051274;28;20175;-50
2022/05/01 12:20:47;;;;;;;14.35;12.85;;;17.50;98.20;;;;;;5049704;28;20206;-47
2022/05/01 12:23:17;;;;;;;16.20;13.00;;;17.40;99.30;;;;;;5051083;28;20158;-44
2022/05/01 12:25:46;;;;;;;15.30;12.85;;;17.40;98.40;;;;;;5051222;28;20174;-47
2022/05/01 12:28:13;;;;;;;15.10;13.18;;;17.20;98.20;;;;;;5051128;28;20155;-46
2022/05/01 12:30:39;;;;;;;14.35;12.43;;;17.20;98.70;;;;;;5051051;28;20232;-47
2022/05/01 12:33:05;;;;;;;14.07;12.57;;;17.10;98.50;;;;;;5050886;28;20635;-45
2022/05/01 12:35:53;;;;;;;13.93;12.23;;;17.10;98.70;;;;;;5050178;28;20289;-48
2022/05/01 12:38:20;;;;;;;15.23;12.23;;;17.10;98.30;;;;;;5053362;28;20269;-49
2022/05/01 12:46:24;;;;;;;12.95;11.65;;;17.60;97.20;;;;;;5054932;28;20212;-45
2022/05/01 12:48:51;;;;;;;14.80;13.40;;;17.40;97.30;;;;;;5054740;28;20178;-47
2022/05/01 12:51:17;;;;;;;18.60;12.75;;;17.40;96.20;;;;;;5054419;28;20167;-47
2022/05/01 12:53:42;;;;;;;15.15;13.48;;;17.40;97.00;;;;;;5054446;28;20162;-44
2022/05/01 12:56:20;;;;;;;14.73;13.20;;;17.70;97.10;;;;;;5054425;28;20171;-45
2022/05/01 12:58:47;;;;;;;16.10;12.60;;;17.50;95.30;;;;;;5054621;28;20174;-45
2022/05/01 13:01:27;;;;;;;15.40;12.75;;;17.60;95.60;;;;;;5054535;28;20244;-45
2022/05/01 13:03:56;;;;;;;14.63;12.48;;;17.70;96.60;;;;;;5054092;28;20218;-44
2022/05/01 13:06:23;;;;;;;14.93;13.27;;;17.80;96.30;;;;;;5054233;28;20166;-44
2022/05/01 13:09:06;;;;;;;19.33;11.98;;;17.80;95.80;;;;;;5054441;28;20178;-45
2022/05/01 13:11:33;;;;;;;13.25;11.88;;;17.90;95.00;;;;;;5054743;28;20197;-48
2022/05/01 13:14:00;;;;;;;15.73;12.48;;;17.70;93.60;;;;;;5054625;28;20254;-49